createdAt,value
2018-07-11T00:00:29.016Z,99.99
2018-07-11T00:01:28.919Z,99.99
2018-07-11T00:02:29.017Z,99.99
2018-07-11T00:03:28.959Z,99.99
2018-07-11T00:04:29.027Z,99.99
2018-07-11T00:05:28.998Z,99.99
2018-07-11T00:06:29.042Z,99.99
2018-07-11T00:07:29.024Z,99.99
2018-07-11T00:08:29.155Z,99.99
2018-07-11T00:09:29.073Z,99.99
2018-07-11T00:10:29.167Z,99.99
2018-07-11T00:11:29.105Z,99.99
2018-07-11T00:12:29.183Z,99.99
2018-07-11T00:13:29.129Z,99.99
2018-07-11T00:14:29.198Z,99.99
2018-07-11T00:15:29.186Z,99.99
2018-07-11T00:16:29.201Z,99.99
2018-07-11T00:17:29.213Z,99.99
2018-07-11T00:18:29.340Z,99.99
2018-07-11T00:19:29.266Z,99.99
2018-07-11T00:20:29.322Z,99.99
2018-07-11T00:21:29.269Z,99.99
2018-07-11T00:22:29.349Z,99.99
2018-07-11T00:23:29.320Z,99.99
2018-07-11T00:24:29.343Z,99.99
2018-07-11T00:25:29.349Z,99.99
2018-07-11T00:26:29.368Z,99.99
2018-07-11T00:27:29.400Z,99.99
2018-07-11T00:28:29.493Z,99.99
2018-07-11T00:29:29.412Z,99.99
2018-07-11T00:30:29.501Z,99.99
2018-07-11T00:31:29.445Z,99.99
2018-07-11T00:32:29.519Z,99.99
2018-07-11T00:33:29.476Z,99.99
2018-07-11T00:34:29.520Z,99.99
2018-07-11T00:35:29.538Z,99.99
2018-07-11T00:36:29.640Z,99.99
2018-07-11T00:37:29.703Z,99.99
2018-07-11T00:38:29.668Z,99.99
2018-07-11T00:39:29.585Z,99.99
2018-07-11T00:40:29.668Z,99.99
2018-07-11T00:41:29.624Z,99.99
2018-07-11T00:42:29.689Z,99.99
2018-07-11T00:43:29.681Z,99.99
2018-07-11T00:44:29.705Z,99.99
2018-07-11T00:45:29.703Z,99.99
2018-07-11T00:46:29.891Z,99.99
2018-07-11T00:47:29.736Z,99.99
2018-07-11T00:48:29.825Z,99.99
2018-07-11T00:49:29.777Z,99.99
2018-07-11T00:50:29.870Z,99.99
2018-07-11T00:51:29.882Z,99.99
2018-07-11T00:52:29.900Z,99.99
2018-07-11T00:53:29.834Z,99.99
2018-07-11T00:54:29.858Z,99.99
2018-07-11T00:55:29.857Z,99.99
2018-07-11T00:56:29.904Z,99.99
2018-07-11T00:57:29.902Z,99.99
2018-07-11T00:58:30.018Z,99.99
2018-07-11T00:59:29.953Z,99.99
2018-07-11T01:00:29.955Z,99.99
2018-07-11T01:01:29.974Z,99.99
2018-07-11T01:02:30.015Z,99.99
2018-07-11T01:03:30.027Z,99.99
2018-07-11T01:04:30.129Z,99.99
2018-07-11T01:05:30.036Z,99.99
2018-07-11T01:06:30.147Z,99.99
2018-07-11T01:07:30.084Z,99.99
2018-07-11T01:08:30.159Z,99.99
2018-07-11T01:09:30.103Z,99.99
2018-07-11T01:10:30.173Z,99.99
2018-07-11T01:11:30.141Z,99.99
2018-07-11T01:12:30.198Z,99.99
2018-07-11T01:13:30.194Z,99.99
2018-07-11T01:14:30.306Z,99.99
2018-07-11T01:15:30.214Z,99.99
2018-07-11T01:16:30.316Z,99.99
2018-07-11T01:17:30.245Z,99.99
2018-07-11T01:18:30.340Z,99.99
2018-07-11T01:19:30.300Z,99.99
2018-07-11T01:20:30.330Z,99.99
2018-07-11T01:21:30.390Z,99.99
2018-07-11T01:22:30.463Z,99.99
2018-07-11T01:23:30.444Z,99.99
2018-07-11T01:24:30.475Z,99.99
2018-07-11T01:25:30.389Z,99.99
2018-07-11T01:26:30.485Z,99.99
2018-07-11T01:27:30.420Z,99.99
2018-07-11T01:28:30.506Z,99.99
2018-07-11T01:29:30.456Z,99.99
2018-07-11T01:30:30.585Z,99.99
2018-07-11T01:31:30.491Z,99.99
2018-07-11T01:32:30.628Z,99.99
2018-07-11T01:33:30.519Z,99.99
2018-07-11T01:34:30.736Z,99.99
2018-07-11T01:35:30.563Z,99.99
2018-07-11T01:36:30.749Z,99.99
2018-07-11T01:37:30.597Z,99.99
2018-07-11T01:38:30.741Z,99.99
2018-07-11T01:39:30.640Z,99.99
2018-07-11T01:40:30.770Z,99.99
2018-07-11T01:41:30.654Z,99.99
2018-07-11T01:42:30.902Z,99.99
2018-07-11T01:43:30.696Z,99.99
2018-07-11T01:44:30.896Z,99.99
2018-07-11T01:45:30.739Z,99.99
2018-07-11T01:46:30.915Z,99.99
2018-07-11T01:47:30.773Z,99.99
2018-07-11T01:48:31.031Z,99.99
2018-07-11T01:49:30.802Z,99.99
2018-07-11T01:50:30.931Z,99.99
2018-07-11T01:51:30.846Z,99.99
2018-07-11T01:52:31.037Z,99.99
2018-07-11T01:53:30.888Z,99.99
2018-07-11T01:54:31.059Z,99.99
2018-07-11T01:55:30.898Z,99.99
2018-07-11T01:56:31.079Z,99.99
2018-07-11T01:57:30.935Z,99.99
2018-07-11T01:58:31.103Z,99.99
2018-07-11T01:59:30.976Z,99.99
2018-07-11T02:00:31.108Z,99.99
2018-07-11T02:01:31.011Z,99.99
2018-07-11T02:02:31.214Z,99.99
2018-07-11T02:03:31.032Z,99.99
2018-07-11T02:04:31.237Z,99.99
2018-07-11T02:05:31.072Z,99.99
2018-07-11T02:06:31.257Z,99.99
2018-07-11T02:07:31.106Z,99.99
2018-07-11T02:08:31.248Z,99.99
2018-07-11T02:09:31.141Z,99.99
2018-07-11T02:10:31.261Z,99.99
2018-07-11T02:11:31.170Z,99.99
2018-07-11T02:12:31.400Z,99.99
2018-07-11T02:13:31.224Z,99.99
2018-07-11T02:14:31.435Z,99.99
2018-07-11T02:15:31.252Z,99.99
2018-07-11T02:16:31.427Z,99.99
2018-07-11T02:17:31.286Z,99.99
2018-07-11T02:18:31.442Z,99.99
2018-07-11T02:19:31.322Z,99.99
2018-07-11T02:20:31.539Z,99.99
2018-07-11T02:21:31.345Z,99.99
2018-07-11T02:22:31.590Z,99.99
2018-07-11T02:23:31.373Z,99.99
2018-07-11T02:24:32.607Z,99.99
2018-07-11T02:25:31.406Z,99.99
2018-07-11T02:26:31.590Z,99.99
2018-07-11T02:27:31.446Z,99.99
2018-07-11T02:28:31.602Z,99.99
2018-07-11T02:29:31.487Z,99.99
2018-07-11T02:30:31.646Z,99.99
2018-07-11T02:31:31.525Z,99.99
2018-07-11T02:32:31.743Z,99.99
2018-07-11T02:33:31.567Z,99.99
2018-07-11T02:34:31.748Z,99.99
2018-07-11T02:35:31.599Z,99.99
2018-07-11T02:36:31.659Z,99.99
2018-07-11T02:37:31.616Z,99.99
2018-07-11T02:38:31.694Z,99.99
2018-07-11T02:39:31.651Z,99.99
2018-07-11T02:40:31.693Z,99.99
2018-07-11T02:41:31.704Z,99.99
2018-07-11T02:42:31.801Z,99.99
2018-07-11T02:43:31.710Z,99.99
2018-07-11T02:44:31.827Z,99.99
2018-07-11T02:45:31.767Z,99.99
2018-07-11T02:46:31.831Z,99.99
2018-07-11T02:47:31.781Z,99.99
2018-07-11T02:48:31.850Z,99.99
2018-07-11T02:49:31.875Z,99.99
2018-07-11T02:50:31.950Z,99.99
2018-07-11T02:51:31.887Z,99.99
2018-07-11T02:52:31.968Z,99.99
2018-07-11T02:53:31.897Z,99.99
2018-07-11T02:54:31.992Z,99.99
2018-07-11T02:55:31.933Z,99.99
2018-07-11T02:56:31.987Z,99.99
2018-07-11T02:57:31.966Z,99.99
2018-07-11T02:58:32.018Z,99.99
2018-07-11T02:59:32.000Z,99.99
2018-07-11T03:00:32.050Z,99.99
2018-07-11T03:01:32.062Z,99.99
2018-07-11T03:02:32.145Z,99.99
2018-07-11T03:03:32.075Z,99.99
2018-07-11T03:04:32.182Z,99.99
2018-07-11T03:05:32.164Z,99.99
2018-07-11T03:06:32.163Z,99.99
2018-07-11T03:07:32.136Z,99.99
2018-07-11T03:08:32.182Z,99.99
2018-07-11T03:09:32.166Z,99.99
2018-07-11T03:10:32.323Z,99.99
2018-07-11T03:11:32.208Z,99.99
2018-07-11T03:12:32.317Z,99.99
2018-07-11T03:13:32.223Z,99.99
2018-07-11T03:14:32.249Z,99.99
2018-07-11T03:15:32.277Z,99.99
2018-07-11T03:16:32.330Z,99.99
2018-07-11T03:17:32.287Z,99.99
2018-07-11T03:18:32.347Z,99.99
2018-07-11T03:19:32.345Z,99.99
2018-07-11T03:20:32.470Z,99.99
2018-07-11T03:21:32.395Z,99.99
2018-07-11T03:22:32.494Z,99.99
2018-07-11T03:23:32.389Z,99.99
2018-07-11T03:24:32.518Z,99.99
2018-07-11T03:25:32.441Z,99.99
2018-07-11T03:26:32.517Z,99.99
2018-07-11T03:27:32.453Z,99.99
2018-07-11T03:28:32.556Z,99.99
2018-07-11T03:29:32.493Z,99.99
2018-07-11T03:30:32.646Z,99.99
2018-07-11T03:31:32.530Z,99.99
2018-07-11T03:32:32.706Z,99.99
2018-07-11T03:33:32.575Z,99.99
2018-07-11T03:34:32.671Z,99.99
2018-07-11T03:35:32.603Z,99.99
2018-07-11T03:36:32.671Z,99.99
2018-07-11T03:37:32.630Z,99.99
2018-07-11T03:38:32.686Z,99.99
2018-07-11T03:39:32.666Z,99.99
2018-07-11T03:40:32.831Z,99.99
2018-07-11T03:41:32.720Z,99.99
2018-07-11T03:42:32.902Z,99.99
2018-07-11T03:43:32.724Z,99.99
2018-07-11T03:44:32.752Z,99.99
2018-07-11T03:45:32.804Z,99.99
2018-07-11T03:46:32.788Z,99.99
2018-07-11T03:47:32.823Z,99.99
2018-07-11T03:48:32.798Z,99.99
2018-07-11T03:49:33.860Z,99.99
2018-07-11T03:50:32.867Z,99.99
2018-07-11T03:51:32.958Z,99.99
2018-07-11T03:52:32.889Z,99.99
2018-07-11T03:53:32.991Z,99.99
2018-07-11T03:54:32.929Z,99.99
2018-07-11T03:55:32.999Z,99.99
2018-07-11T03:56:32.963Z,99.99
2018-07-11T03:57:32.984Z,99.99
2018-07-11T03:58:32.975Z,99.99
2018-07-11T03:59:33.112Z,99.99
2018-07-11T04:00:33.025Z,99.99
2018-07-11T04:01:33.138Z,99.99
2018-07-11T04:02:33.039Z,99.99
2018-07-11T04:03:34.149Z,99.99
2018-07-11T04:04:33.101Z,99.99
2018-07-11T04:05:34.165Z,99.99
2018-07-11T04:06:33.132Z,99.99
2018-07-11T04:07:33.144Z,99.99
2018-07-11T04:08:33.292Z,99.99
2018-07-11T04:09:33.184Z,99.99
2018-07-11T04:10:34.268Z,99.99
2018-07-11T04:11:33.227Z,99.99
2018-07-11T04:12:33.285Z,99.99
2018-07-11T04:13:33.252Z,99.99
2018-07-11T04:14:33.313Z,99.99
2018-07-11T04:15:33.275Z,99.99
2018-07-11T04:16:33.351Z,99.99
2018-07-11T04:17:33.349Z,99.99
2018-07-11T04:18:33.463Z,99.99
2018-07-11T04:19:33.339Z,99.99
2018-07-11T04:20:33.451Z,99.99
2018-07-11T04:21:33.373Z,99.99
2018-07-11T04:22:33.460Z,99.99
2018-07-11T04:23:33.426Z,99.99
2018-07-11T04:24:33.580Z,99.99
2018-07-11T04:25:33.440Z,99.99
2018-07-11T04:26:33.475Z,99.99
2018-07-11T04:27:33.496Z,99.99
2018-07-11T04:28:33.621Z,99.99
2018-07-11T04:29:33.512Z,99.99
2018-07-11T04:30:33.617Z,99.99
2018-07-11T04:31:33.549Z,99.99
2018-07-11T04:32:33.635Z,99.99
2018-07-11T04:33:33.573Z,99.99
2018-07-11T04:34:33.682Z,99.99
2018-07-11T04:35:33.614Z,99.99
2018-07-11T04:36:33.656Z,99.99
2018-07-11T04:37:33.635Z,99.99
2018-07-11T04:38:33.769Z,99.99
2018-07-11T04:39:33.678Z,99.99
2018-07-11T04:40:33.787Z,99.99
2018-07-11T04:41:33.741Z,99.99
2018-07-11T04:42:33.864Z,99.99
2018-07-11T04:43:33.742Z,99.99
2018-07-11T04:44:33.804Z,99.99
2018-07-11T04:45:33.768Z,99.99
2018-07-11T04:46:33.813Z,99.99
2018-07-11T04:47:33.807Z,99.99
2018-07-11T04:48:33.941Z,99.99
2018-07-11T04:49:33.842Z,99.99
2018-07-11T04:50:33.890Z,99.99
2018-07-11T04:51:33.874Z,99.99
2018-07-11T04:52:35.049Z,99.99
2018-07-11T04:53:33.907Z,99.99
2018-07-11T04:54:33.969Z,99.99
2018-07-11T04:55:33.944Z,99.99
2018-07-11T04:56:33.983Z,99.99
2018-07-11T04:57:33.989Z,99.99
2018-07-11T04:58:34.021Z,99.99
2018-07-11T04:59:33.986Z,99.99
2018-07-11T05:00:34.135Z,99.99
2018-07-11T05:01:34.093Z,99.99
2018-07-11T05:02:34.213Z,99.99
2018-07-11T05:03:34.076Z,99.99
2018-07-11T05:04:35.152Z,99.99
2018-07-11T05:05:34.105Z,99.99
2018-07-11T05:06:34.149Z,99.99
2018-07-11T05:07:34.149Z,99.99
2018-07-11T05:08:34.153Z,99.99
2018-07-11T05:09:34.194Z,99.99
2018-07-11T05:10:34.193Z,99.99
2018-07-11T05:11:34.251Z,99.99
2018-07-11T05:12:34.224Z,99.99
2018-07-11T05:13:34.308Z,99.99
2018-07-11T05:14:34.257Z,99.99
2018-07-11T05:15:34.327Z,99.99
2018-07-11T05:16:34.293Z,99.99
2018-07-11T05:17:34.314Z,99.99
2018-07-11T05:18:34.321Z,99.99
2018-07-11T05:19:34.447Z,99.99
2018-07-11T05:20:34.391Z,99.99
2018-07-11T05:21:34.459Z,99.99
2018-07-11T05:22:34.421Z,99.99
2018-07-11T05:23:34.490Z,99.99
2018-07-11T05:24:34.435Z,99.99
2018-07-11T05:25:34.513Z,99.99
2018-07-11T05:26:34.474Z,99.99
2018-07-11T05:27:34.498Z,99.99
2018-07-11T05:28:34.508Z,99.99
2018-07-11T05:29:35.524Z,99.99
2018-07-11T05:30:34.536Z,99.99
2018-07-11T05:31:34.549Z,99.99
2018-07-11T05:32:34.600Z,99.99
2018-07-11T05:33:34.632Z,99.99
2018-07-11T05:34:34.601Z,99.99
2018-07-11T05:35:46.221Z,99.99
2018-07-11T05:36:34.619Z,99.99
2018-07-11T06:34:54.248Z,89.80
2018-07-11T06:35:53.466Z,89.80
2018-07-11T06:36:52.406Z,89.42
2018-07-11T06:37:52.517Z,89.51
2018-07-11T06:38:52.443Z,88.65
2018-07-11T06:39:52.575Z,88.46
2018-07-11T06:40:52.475Z,88.94
2018-07-11T06:41:52.585Z,88.75
2018-07-11T06:42:52.505Z,88.75
2018-07-11T06:43:52.586Z,88.65
2018-07-11T06:44:52.540Z,88.84
2018-07-11T06:45:52.591Z,88.75
2018-07-11T06:46:52.590Z,88.65
2018-07-11T06:47:52.762Z,88.46
2018-07-11T06:48:52.610Z,87.98
2018-07-11T06:49:52.641Z,88.31
2018-07-11T06:50:52.653Z,88.02
2018-07-11T06:51:52.736Z,87.64
2018-07-11T06:52:52.687Z,87.74
2018-07-11T06:53:52.852Z,87.64
2018-07-11T06:54:52.734Z,86.97
2018-07-11T06:55:52.855Z,86.97
2018-07-11T06:56:52.767Z,86.78
2018-07-11T06:57:52.797Z,87.01
2018-07-11T06:58:52.784Z,86.82
2018-07-11T06:59:52.934Z,86.72
2018-07-11T07:00:52.862Z,86.05
2018-07-11T07:01:52.949Z,85.91
2018-07-11T07:02:52.853Z,86.29
2018-07-11T07:03:52.983Z,85.71
2018-07-11T07:04:52.911Z,85.33
2018-07-11T07:05:52.907Z,85.42
2018-07-11T07:06:52.931Z,85.24
2018-07-11T07:07:52.953Z,85.71
2018-07-11T07:08:53.004Z,86.15
2018-07-11T07:09:53.076Z,86.19
2018-07-11T07:10:53.005Z,86.25
2018-07-11T07:11:53.108Z,86.15
2018-07-11T07:12:53.039Z,86.05
2018-07-11T07:13:53.103Z,86.15
2018-07-11T07:14:53.070Z,85.96
2018-07-11T07:15:53.115Z,86.00
2018-07-11T07:16:53.105Z,86.00
2018-07-11T07:17:53.135Z,86.19
2018-07-11T07:18:53.132Z,85.62
2018-07-11T07:19:53.167Z,85.33
2018-07-11T07:20:53.161Z,85.62
2018-07-11T07:21:53.272Z,84.85
2018-07-11T07:22:53.224Z,84.66
2018-07-11T07:23:53.271Z,84.51
2018-07-11T07:24:53.234Z,84.12
2018-07-11T07:25:53.287Z,83.93
2018-07-11T07:26:53.265Z,83.54
2018-07-11T07:27:53.290Z,83.20
2018-07-11T07:28:53.306Z,82.53
2018-07-11T07:29:54.371Z,81.96
2018-07-11T07:30:53.324Z,82.73
2018-07-11T07:31:53.475Z,82.15
2018-07-11T07:32:53.370Z,81.90
2018-07-11T07:33:53.445Z,82.09
2018-07-11T07:34:53.392Z,81.90
2018-07-11T07:35:53.445Z,81.42
2018-07-11T07:36:53.479Z,81.61
2018-07-11T07:37:53.472Z,80.98
2018-07-11T07:38:53.493Z,81.71
2018-07-11T07:39:53.599Z,80.94
2018-07-11T07:40:53.592Z,80.69
2018-07-11T07:41:53.656Z,80.84
2018-07-11T07:42:53.559Z,80.84
2018-07-11T07:43:53.568Z,81.23
2018-07-11T07:44:53.613Z,81.52
2018-07-11T07:45:53.590Z,81.32
2018-07-11T07:46:53.658Z,81.52
2018-07-11T07:47:53.611Z,81.46
2018-07-11T07:48:53.650Z,81.71
2018-07-11T07:49:53.680Z,81.71
2018-07-11T07:50:53.670Z,81.61
2018-07-11T07:51:53.685Z,81.56
2018-07-11T07:52:53.764Z,81.75
2018-07-11T07:53:53.725Z,81.46
2018-07-11T07:54:53.773Z,81.37
2018-07-11T07:55:53.780Z,81.17
2018-07-11T07:56:53.795Z,81.46
2018-07-11T07:57:53.799Z,81.17
2018-07-11T07:58:54.910Z,81.56
2018-07-11T07:59:53.814Z,81.75
2018-07-11T08:00:53.847Z,81.65
2018-07-11T08:01:53.880Z,81.75
2018-07-11T08:02:53.977Z,82.23
2018-07-11T08:03:53.924Z,82.23
2018-07-11T08:04:53.924Z,82.23
2018-07-11T08:05:53.928Z,82.32
2018-07-11T08:06:54.010Z,81.75
2018-07-11T08:07:53.960Z,82.23
2018-07-11T08:08:53.979Z,82.46
2018-07-11T08:09:54.027Z,81.75
2018-07-11T08:10:54.006Z,81.50
2018-07-11T08:11:55.162Z,81.30
2018-07-11T08:12:54.081Z,81.40
2018-07-11T08:13:54.248Z,81.30
2018-07-11T08:14:54.080Z,81.79
2018-07-11T08:15:54.264Z,81.02
2018-07-11T08:16:54.135Z,80.54
2018-07-11T08:17:54.275Z,80.35
2018-07-11T08:18:54.160Z,80.63
2018-07-11T08:19:54.266Z,80.35
2018-07-11T08:20:54.193Z,80.54
2018-07-11T08:21:54.303Z,81.12
2018-07-11T08:22:54.211Z,81.02
2018-07-11T08:23:54.287Z,80.73
2018-07-11T08:24:54.266Z,80.00
2018-07-11T08:25:54.563Z,80.19
2018-07-11T08:26:54.314Z,80.19
2018-07-11T08:27:54.414Z,79.71
2018-07-11T08:28:54.338Z,80.06
2018-07-11T08:29:54.413Z,80.25
2018-07-11T08:30:54.356Z,79.86
2018-07-11T08:31:54.454Z,80.19
2018-07-11T08:32:54.410Z,79.90
2018-07-11T08:33:54.411Z,79.52
2018-07-11T08:34:54.454Z,79.48
2018-07-11T08:35:54.455Z,79.58
2018-07-11T08:37:38.237Z,79.43
2018-07-11T08:38:38.049Z,79.23
2018-07-11T08:39:38.080Z,78.85
2018-07-11T08:40:38.210Z,78.75
2018-07-11T08:41:38.097Z,78.94
2018-07-11T08:42:38.114Z,79.03
2018-07-11T08:43:38.131Z,78.59
2018-07-11T08:44:40.335Z,78.98
2018-07-11T08:45:38.176Z,78.31
2018-07-11T08:46:38.265Z,78.25
2018-07-11T08:47:38.237Z,77.58
2018-07-11T08:48:38.275Z,77.44
2018-07-11T08:49:38.287Z,77.63
2018-07-11T08:50:38.428Z,77.83
2018-07-11T08:51:38.301Z,78.21
2018-07-11T08:52:38.326Z,78.21
2018-07-11T08:53:38.332Z,77.92
2018-07-11T08:54:39.523Z,77.40
2018-07-11T08:55:38.360Z,77.69
2018-07-11T08:56:39.462Z,79.13
2018-07-11T08:57:38.396Z,79.23
2018-07-11T08:58:40.559Z,78.27
2018-07-11T08:59:38.427Z,78.50
2018-07-11T09:00:40.588Z,78.17
2018-07-11T09:01:38.470Z,78.50
2018-07-11T09:02:38.638Z,78.36
2018-07-11T09:03:38.508Z,78.27
2018-07-11T09:04:39.667Z,79.03
2018-07-11T09:05:38.542Z,78.75
2018-07-11T09:06:38.770Z,79.13
2018-07-11T09:07:38.592Z,78.46
2018-07-11T09:08:38.818Z,78.36
2018-07-11T09:09:38.611Z,78.75
2018-07-11T09:10:38.848Z,78.94
2018-07-11T09:11:38.657Z,78.17
2018-07-11T09:12:38.800Z,77.40
2018-07-11T09:13:38.732Z,77.50
2018-07-11T09:14:38.823Z,77.40
2018-07-11T09:15:38.731Z,76.82
2018-07-11T09:16:38.928Z,77.11
2018-07-11T09:17:38.771Z,77.25
2018-07-11T09:18:38.963Z,77.50
2018-07-11T09:19:38.795Z,77.40
2018-07-11T09:20:38.978Z,77.69
2018-07-11T09:21:38.840Z,77.21
2018-07-11T09:22:38.963Z,78.08
2018-07-11T09:23:38.906Z,78.17
2018-07-11T09:24:40.049Z,78.17
2018-07-11T09:25:38.898Z,78.46
2018-07-11T09:26:39.143Z,78.90
2018-07-11T09:27:38.957Z,79.00
2018-07-11T09:28:39.103Z,79.48
2018-07-11T09:29:38.987Z,79.86
2018-07-11T09:30:39.162Z,79.58
2018-07-11T09:31:39.020Z,80.15
2018-07-11T09:32:39.143Z,80.06
2018-07-11T09:33:39.053Z,80.25
2018-07-11T09:34:39.099Z,80.10
2018-07-11T09:35:39.271Z,80.25
2018-07-11T09:36:39.111Z,80.06
2018-07-11T09:37:39.299Z,80.35
2018-07-11T09:38:39.146Z,80.73
2018-07-11T09:39:39.293Z,80.92
2018-07-11T09:40:39.182Z,80.83
2018-07-11T09:41:40.340Z,81.50
2018-07-11T09:42:39.217Z,81.17
2018-07-11T09:43:39.423Z,81.65
2018-07-11T09:44:39.263Z,81.79
2018-07-11T09:45:39.338Z,81.50
2018-07-11T09:46:40.390Z,81.79
2018-07-11T09:47:39.324Z,81.16
2018-07-11T09:48:39.332Z,81.06
2018-07-11T09:49:39.391Z,80.00
2018-07-11T09:50:39.385Z,80.00
2018-07-11T09:51:39.383Z,79.27
2018-07-11T09:52:39.534Z,78.02
2018-07-11T09:53:39.437Z,77.58
2018-07-11T09:54:39.436Z,77.00
2018-07-11T09:55:39.443Z,76.93
2018-07-11T09:56:39.484Z,75.88
2018-07-11T09:57:39.556Z,75.20
2018-07-11T09:58:39.511Z,74.95
2018-07-11T09:59:39.538Z,75.24
2018-07-11T10:00:39.582Z,74.76
2018-07-11T10:01:39.564Z,74.08
2018-07-11T10:02:39.571Z,73.50
2018-07-11T10:03:39.641Z,73.54
2018-07-11T10:04:39.630Z,73.25
2018-07-11T10:05:39.636Z,73.02
2018-07-11T10:06:39.717Z,73.31
2018-07-11T10:07:39.926Z,73.21
2018-07-11T10:08:39.679Z,72.83
2018-07-11T10:09:39.740Z,73.31
2018-07-11T10:10:39.836Z,73.41
2018-07-11T10:11:39.735Z,73.95
2018-07-11T10:12:40.903Z,74.37
2018-07-11T10:13:39.782Z,74.72
2018-07-11T10:14:39.805Z,74.37
2018-07-11T10:15:40.904Z,74.18
2018-07-11T10:16:39.834Z,73.89
2018-07-11T10:17:39.993Z,73.99
2018-07-11T10:18:39.875Z,74.47
2018-07-11T10:19:39.915Z,73.79
2018-07-11T10:20:39.912Z,73.41
2018-07-11T10:21:40.002Z,73.60
2018-07-11T10:22:39.946Z,74.18
2018-07-11T10:23:39.966Z,73.60
2018-07-11T10:24:39.997Z,73.50
2018-07-11T10:25:40.008Z,73.18
2018-07-11T10:26:40.014Z,73.27
2018-07-11T10:27:41.195Z,73.85
2018-07-11T10:28:40.197Z,74.33
2018-07-11T10:29:40.191Z,74.52
2018-07-11T10:30:40.119Z,74.14
2018-07-11T10:31:42.277Z,74.52
2018-07-11T10:32:40.140Z,74.43
2018-07-11T10:33:40.163Z,74.33
2018-07-11T10:34:40.172Z,74.82
2018-07-11T10:35:40.326Z,73.99
2018-07-11T10:36:40.205Z,74.08
2018-07-11T10:37:40.214Z,73.31
2018-07-11T10:38:40.222Z,72.73
2018-07-11T10:39:40.281Z,72.09
2018-07-11T10:40:40.274Z,71.61
2018-07-11T10:41:40.303Z,71.70
2018-07-11T10:42:40.304Z,71.03
2018-07-11T10:43:40.332Z,70.48
2018-07-11T10:44:42.427Z,70.64
2018-07-11T10:45:40.374Z,70.78
2018-07-11T10:46:40.508Z,70.48
2018-07-11T10:47:40.430Z,70.97
2018-07-11T10:48:40.515Z,70.97
2018-07-11T10:49:40.442Z,70.78
2018-07-11T10:50:40.542Z,71.06
2018-07-11T10:51:40.480Z,70.64
2018-07-11T10:52:40.489Z,70.54
2018-07-11T10:53:40.516Z,71.03
2018-07-11T10:54:40.554Z,70.84
2018-07-11T10:55:40.616Z,71.22
2018-07-11T10:56:40.591Z,70.84
2018-07-11T10:57:40.787Z,70.80
2018-07-11T10:58:40.626Z,71.09
2018-07-11T10:59:40.727Z,71.58
2018-07-11T11:00:40.657Z,72.15
2018-07-11T11:01:40.646Z,72.25
2018-07-11T11:02:40.695Z,73.08
2018-07-11T11:03:40.844Z,73.37
2018-07-11T11:04:40.705Z,73.57
2018-07-11T11:05:41.890Z,74.30
2018-07-11T11:06:40.751Z,75.16
2018-07-11T11:07:40.832Z,75.26
2018-07-11T11:08:40.788Z,74.97
2018-07-11T11:09:40.945Z,75.01
2018-07-11T11:10:40.837Z,74.72
2018-07-11T11:11:42.031Z,74.37
2018-07-11T11:12:40.857Z,73.69
2018-07-11T11:13:41.030Z,73.50
2018-07-11T11:14:40.938Z,73.41
2018-07-11T11:15:40.918Z,73.11
2018-07-11T11:16:40.943Z,73.31
2018-07-11T11:17:40.965Z,73.11
2018-07-11T11:18:41.000Z,73.11
2018-07-11T11:19:41.293Z,73.41
2018-07-11T11:20:41.165Z,73.41
2018-07-11T11:21:41.043Z,73.02
2018-07-11T11:22:41.266Z,73.50
2018-07-11T11:23:41.059Z,73.79
2018-07-11T11:24:41.191Z,74.43
2018-07-11T11:25:41.155Z,74.72
2018-07-11T11:26:41.329Z,74.43
2018-07-11T11:27:41.142Z,74.82
2018-07-11T11:28:41.151Z,75.01
2018-07-11T11:29:41.267Z,75.65
2018-07-11T11:30:41.204Z,75.84
2018-07-11T11:31:41.265Z,76.42
2018-07-11T11:32:41.311Z,76.42
2018-07-11T11:33:41.251Z,77.67
2018-07-11T11:34:41.335Z,78.15
2018-07-11T11:35:41.320Z,78.63
2018-07-11T11:36:41.373Z,78.92
2018-07-11T11:37:41.327Z,79.66
2018-07-11T11:38:41.332Z,80.62
2018-07-11T11:39:41.379Z,81.48
2018-07-11T11:40:41.380Z,83.95
2018-07-11T11:41:41.517Z,88.62
2018-07-11T11:42:41.479Z,92.13
2018-07-11T11:43:41.424Z,97.04
2018-07-11T11:44:41.436Z,99.68
2018-07-11T11:45:41.550Z,99.99
2018-07-11T11:46:41.498Z,99.99
2018-07-11T11:47:41.494Z,99.99
2018-07-11T11:48:41.511Z,99.99
2018-07-11T11:49:42.603Z,99.99
2018-07-11T11:50:41.553Z,99.99
2018-07-11T11:51:41.581Z,99.99
2018-07-11T11:52:41.618Z,99.99
2018-07-11T11:53:41.619Z,99.99
2018-07-11T11:54:41.628Z,99.99
2018-07-11T11:55:41.740Z,99.99
2018-07-11T11:56:41.668Z,99.99
2018-07-11T11:57:41.693Z,99.99
2018-07-11T11:58:41.700Z,99.99
2018-07-11T11:59:41.737Z,99.99
2018-07-11T12:00:41.959Z,99.99
2018-07-11T12:01:41.816Z,99.99
2018-07-11T12:02:41.776Z,99.99
2018-07-11T12:03:41.969Z,99.99
2018-07-11T12:04:41.818Z,99.99
2018-07-11T12:05:41.835Z,99.99
2018-07-11T12:06:41.987Z,99.99
2018-07-11T12:07:41.872Z,99.99
2018-07-11T12:08:42.061Z,99.99
2018-07-11T12:09:41.907Z,99.99
2018-07-11T12:10:41.931Z,99.99
2018-07-11T12:11:41.941Z,99.99
2018-07-11T12:12:41.962Z,99.99
2018-07-11T12:13:41.990Z,99.99
2018-07-11T12:14:42.010Z,99.99
2018-07-11T12:15:42.033Z,99.99
2018-07-11T12:16:42.060Z,99.99
2018-07-11T12:17:42.256Z,99.99
2018-07-11T12:18:42.074Z,99.99
2018-07-11T12:19:42.084Z,99.99
2018-07-11T12:20:42.106Z,99.99
2018-07-11T12:21:42.142Z,99.99
2018-07-11T12:22:42.149Z,99.99
2018-07-11T12:23:42.159Z,99.99
2018-07-11T12:24:42.301Z,99.99
2018-07-11T12:25:42.448Z,99.99
2018-07-11T12:26:42.218Z,99.99
2018-07-11T12:27:42.390Z,99.99
2018-07-11T12:28:42.258Z,99.99
2018-07-11T12:29:42.293Z,99.99
2018-07-11T12:30:42.320Z,99.99
2018-07-11T12:31:42.329Z,99.99
2018-07-11T12:32:42.430Z,99.99
2018-07-11T12:33:42.363Z,99.99
2018-07-11T12:34:42.474Z,99.99
2018-07-11T12:35:42.388Z,99.99
2018-07-11T12:36:42.493Z,99.99
2018-07-11T12:37:42.417Z,99.99
2018-07-11T12:38:42.526Z,99.99
2018-07-11T12:39:42.449Z,99.99
2018-07-11T12:40:42.526Z,99.99
2018-07-11T12:41:42.498Z,99.99
2018-07-11T12:42:42.539Z,99.99
2018-07-11T12:43:42.514Z,99.99
2018-07-11T12:44:42.709Z,99.99
2018-07-11T12:45:42.557Z,99.99
2018-07-11T12:46:42.649Z,99.99
2018-07-11T12:47:42.621Z,99.99
2018-07-11T12:48:42.677Z,99.99
2018-07-11T12:49:42.639Z,99.99
2018-07-11T12:50:42.685Z,99.99
2018-07-11T12:51:42.684Z,99.99
2018-07-11T12:52:42.799Z,99.99
2018-07-11T12:53:42.716Z,99.99
2018-07-11T12:54:42.815Z,99.99
2018-07-11T12:55:42.756Z,99.99
2018-07-11T12:56:42.837Z,99.99
2018-07-11T12:57:42.776Z,99.99
2018-07-11T12:58:42.831Z,99.99
2018-07-11T12:59:42.808Z,99.99
2018-07-11T13:00:43.876Z,99.99
2018-07-11T13:01:42.861Z,99.99
2018-07-11T13:02:42.952Z,99.99
2018-07-11T13:03:42.883Z,99.99
2018-07-11T13:04:42.970Z,99.99
2018-07-11T13:05:42.941Z,99.99
2018-07-11T13:06:43.042Z,99.99
2018-07-11T13:07:43.062Z,99.99
2018-07-11T13:08:43.109Z,99.99
2018-07-11T13:09:43.058Z,99.99
2018-07-11T13:10:43.022Z,99.99
2018-07-11T13:11:43.059Z,99.99
2018-07-11T13:12:43.071Z,99.99
2018-07-11T13:13:43.106Z,99.99
2018-07-11T13:14:43.157Z,99.99
2018-07-11T13:15:43.116Z,99.99
2018-07-11T13:16:43.186Z,99.99
2018-07-11T13:17:43.157Z,99.99
2018-07-11T13:18:43.200Z,99.99
2018-07-11T13:19:43.293Z,99.99
2018-07-11T13:20:43.235Z,99.99
2018-07-11T13:21:43.321Z,99.99
2018-07-11T13:22:43.243Z,99.99
2018-07-11T13:23:44.312Z,99.99
2018-07-11T13:24:43.292Z,99.99
2018-07-11T13:25:43.429Z,99.99
2018-07-11T13:26:43.378Z,99.99
2018-07-11T13:27:43.388Z,99.99
2018-07-11T13:28:43.386Z,99.99
2018-07-11T13:29:43.375Z,99.99
2018-07-11T13:30:43.454Z,99.99
2018-07-11T13:31:43.412Z,99.99
2018-07-11T13:32:43.608Z,99.99
2018-07-11T13:33:43.464Z,99.99
2018-07-11T13:34:43.586Z,99.99
2018-07-11T13:35:43.494Z,99.99
2018-07-11T13:36:43.607Z,99.99
2018-07-11T13:37:43.532Z,99.99
2018-07-11T13:38:43.631Z,99.99
2018-07-11T13:39:43.552Z,99.99
2018-07-11T13:40:43.620Z,99.99
2018-07-11T13:41:43.624Z,99.99
2018-07-11T13:42:43.636Z,99.99
2018-07-11T13:43:43.642Z,99.99
2018-07-11T13:44:43.744Z,99.99
2018-07-11T13:45:43.696Z,99.99
2018-07-11T13:46:43.785Z,99.99
2018-07-11T13:47:43.756Z,99.99
2018-07-11T13:48:43.783Z,99.99
2018-07-11T13:49:43.776Z,99.99
2018-07-11T13:50:43.842Z,99.99